sensor_id;sensor_type;location;lat;lon;timestamp;P1;durP1;ratioP1;P2;durP2;ratioP2
44446;SDS011;30152;52.066;5.358;2022-12-16T07:48:55;22.98;;;12.68;;
44446;SDS011;30152;52.066;5.358;2022-12-16T07:51:40;23.58;;;11.38;;
44446;SDS011;30152;52.066;5.358;2022-12-16T07:54:25;19.50;;;10.25;;
44446;SDS011;30152;52.066;5.358;2022-12-16T07:57:09;22.52;;;11.80;;
44446;SDS011;30152;52.066;5.358;2022-12-16T07:59:54;22.98;;;10.85;;
44446;SDS011;30152;52.066;5.358;2022-12-16T08:02:38;26.27;;;11.88;;
44446;SDS011;30152;52.066;5.358;2022-12-16T08:08:07;21.52;;;10.10;;
44446;SDS011;30152;52.066;5.358;2022-12-16T08:10:51;22.33;;;10.88;;
44446;SDS011;30152;52.066;5.358;2022-12-16T08:13:36;22.75;;;10.18;;
44446;SDS011;30152;52.066;5.358;2022-12-16T08:16:20;25.73;;;11.07;;
44446;SDS011;30152;52.066;5.358;2022-12-16T08:19:05;26.30;;;12.77;;
44446;SDS011;30152;52.066;5.358;2022-12-16T08:21:49;21.10;;;9.90;;
44446;SDS011;30152;52.066;5.358;2022-12-16T08:24:34;21.25;;;10.07;;
44446;SDS011;30152;52.066;5.358;2022-12-16T08:27:18;19.58;;;8.65;;
44446;SDS011;30152;52.066;5.358;2022-12-16T08:30:04;18.85;;;8.85;;
44446;SDS011;30152;52.066;5.358;2022-12-16T08:32:49;20.58;;;9.55;;
44446;SDS011;30152;52.066;5.358;2022-12-16T08:35:33;19.25;;;8.88;;
44446;SDS011;30152;52.066;5.358;2022-12-16T08:41:01;15.85;;;5.95;;
44446;SDS011;30152;52.066;5.358;2022-12-16T08:46:30;18.85;;;7.00;;
44446;SDS011;30152;52.066;5.358;2022-12-16T08:49:14;18.75;;;6.82;;
44446;SDS011;30152;52.066;5.358;2022-12-16T08:51:58;19.48;;;8.50;;
44446;SDS011;30152;52.066;5.358;2022-12-16T08:54:43;17.10;;;7.60;;
44446;SDS011;30152;52.066;5.358;2022-12-16T08:57:27;18.10;;;7.65;;
44446;SDS011;30152;52.066;5.358;2022-12-16T09:00:12;20.25;;;7.65;;
44446;SDS011;30152;52.066;5.358;2022-12-16T09:02:57;16.88;;;8.45;;
44446;SDS011;30152;52.066;5.358;2022-12-16T09:05:42;13.57;;;7.38;;
44446;SDS011;30152;52.066;5.358;2022-12-16T09:08:27;16.23;;;7.00;;
44446;SDS011;30152;52.066;5.358;2022-12-16T09:11:12;17.95;;;6.65;;
44446;SDS011;30152;52.066;5.358;2022-12-16T09:13:56;12.63;;;6.38;;
44446;SDS011;30152;52.066;5.358;2022-12-16T09:16:40;17.27;;;6.93;;
44446;SDS011;30152;52.066;5.358;2022-12-16T09:19:25;18.13;;;7.28;;
44446;SDS011;30152;52.066;5.358;2022-12-16T09:22:09;16.90;;;6.40;;
44446;SDS011;30152;52.066;5.358;2022-12-16T09:24:55;14.30;;;6.25;;
44446;SDS011;30152;52.066;5.358;2022-12-16T09:27:39;14.90;;;6.53;;
44446;SDS011;30152;52.066;5.358;2022-12-16T09:30:24;14.05;;;6.63;;
44446;SDS011;30152;52.066;5.358;2022-12-16T09:33:09;16.30;;;6.53;;
44446;SDS011;30152;52.066;5.358;2022-12-16T09:35:53;12.35;;;5.63;;
44446;SDS011;30152;52.066;5.358;2022-12-16T09:38:38;13.52;;;6.30;;
44446;SDS011;30152;52.066;5.358;2022-12-16T09:41:25;12.50;;;4.30;;
44446;SDS011;30152;52.066;5.358;2022-12-16T09:47:12;15.25;;;5.00;;
44446;SDS011;30152;52.066;5.358;2022-12-16T09:50:13;14.95;;;5.03;;
44446;SDS011;30152;52.066;5.358;2022-12-16T09:53:02;8.88;;;4.15;;
44446;SDS011;30152;52.066;5.358;2022-12-16T09:55:49;12.02;;;4.10;;
44446;SDS011;30152;52.066;5.358;2022-12-16T09:58:35;15.65;;;3.88;;
44446;SDS011;30152;52.066;5.358;2022-12-16T10:01:35;10.45;;;4.07;;
44446;SDS011;30152;52.066;5.358;2022-12-16T10:04:20;10.23;;;3.88;;
44446;SDS011;30152;52.066;5.358;2022-12-16T10:07:05;9.48;;;3.90;;
44446;SDS011;30152;52.066;5.358;2022-12-16T10:09:59;10.45;;;3.70;;
44446;SDS011;30152;52.066;5.358;2022-12-16T10:22:18;9.25;;;3.40;;
44446;SDS011;30152;52.066;5.358;2022-12-16T10:25:25;7.63;;;3.45;;
44446;SDS011;30152;52.066;5.358;2022-12-16T10:28:18;11.23;;;3.47;;
44446;SDS011;30152;52.066;5.358;2022-12-16T10:31:24;12.52;;;3.42;;
44446;SDS011;30152;52.066;5.358;2022-12-16T10:36:53;10.07;;;3.65;;
44446;SDS011;30152;52.066;5.358;2022-12-16T10:39:42;13.32;;;3.55;;
44446;SDS011;30152;52.066;5.358;2022-12-16T10:42:30;9.60;;;3.60;;
44446;SDS011;30152;52.066;5.358;2022-12-16T10:45:22;17.23;;;4.15;;
44446;SDS011;30152;52.066;5.358;2022-12-16T10:48:12;9.90;;;4.00;;
44446;SDS011;30152;52.066;5.358;2022-12-16T10:51:00;11.10;;;3.85;;
44446;SDS011;30152;52.066;5.358;2022-12-16T10:53:45;9.80;;;3.80;;
44446;SDS011;30152;52.066;5.358;2022-12-16T10:59:36;13.75;;;4.45;;
44446;SDS011;30152;52.066;5.358;2022-12-16T11:02:23;11.15;;;4.68;;
44446;SDS011;30152;52.066;5.358;2022-12-16T11:05:22;10.85;;;4.93;;
44446;SDS011;30152;52.066;5.358;2022-12-16T11:08:24;15.15;;;6.18;;
44446;SDS011;30152;52.066;5.358;2022-12-16T11:11:12;15.20;;;6.22;;
44446;SDS011;30152;52.066;5.358;2022-12-16T11:14:47;16.25;;;6.68;;
44446;SDS011;30152;52.066;5.358;2022-12-16T11:17:12;14.07;;;6.60;;
44446;SDS011;30152;52.066;5.358;2022-12-16T11:20:20;14.50;;;8.30;;
44446;SDS011;30152;52.066;5.358;2022-12-16T11:23:06;21.35;;;9.30;;
44446;SDS011;30152;52.066;5.358;2022-12-16T11:29:07;18.80;;;8.93;;
44446;SDS011;30152;52.066;5.358;2022-12-16T11:35:02;21.98;;;10.13;;
44446;SDS011;30152;52.066;5.358;2022-12-16T11:37:48;19.13;;;10.90;;
44446;SDS011;30152;52.066;5.358;2022-12-16T11:40:35;21.65;;;11.30;;
44446;SDS011;30152;52.066;5.358;2022-12-16T11:43:20;21.33;;;10.80;;
44446;SDS011;30152;52.066;5.358;2022-12-16T11:46:08;21.65;;;11.43;;
44446;SDS011;30152;52.066;5.358;2022-12-16T11:48:59;19.52;;;10.25;;
44446;SDS011;30152;52.066;5.358;2022-12-16T11:51:52;21.63;;;10.98;;
44446;SDS011;30152;52.066;5.358;2022-12-16T11:54:39;20.48;;;10.48;;
44446;SDS011;30152;52.066;5.358;2022-12-16T11:57:38;22.27;;;10.77;;
44446;SDS011;30152;52.066;5.358;2022-12-16T12:00:48;21.30;;;10.15;;
44446;SDS011;30152;52.066;5.358;2022-12-16T12:03:41;22.15;;;10.05;;
44446;SDS011;30152;52.066;5.358;2022-12-16T12:06:35;21.08;;;11.30;;
44446;SDS011;30152;52.066;5.358;2022-12-16T12:09:42;22.58;;;12.02;;
44446;SDS011;30152;52.066;5.358;2022-12-16T12:13:29;24.95;;;12.45;;
44446;SDS011;30152;52.066;5.358;2022-12-16T12:18:51;23.02;;;12.02;;
44446;SDS011;30152;52.066;5.358;2022-12-16T12:21:43;27.17;;;13.15;;
44446;SDS011;30152;52.066;5.358;2022-12-16T12:27:44;24.15;;;12.15;;
44446;SDS011;30152;52.066;5.358;2022-12-16T12:30:29;29.65;;;14.35;;
44446;SDS011;30152;52.066;5.358;2022-12-16T12:36:37;28.40;;;15.05;;
44446;SDS011;30152;52.066;5.358;2022-12-16T12:39:47;28.77;;;14.82;;
44446;SDS011;30152;52.066;5.358;2022-12-16T12:42:52;28.55;;;13.70;;
44446;SDS011;30152;52.066;5.358;2022-12-16T12:45:53;29.10;;;15.35;;
44446;SDS011;30152;52.066;5.358;2022-12-16T12:48:57;31.70;;;15.93;;
44446;SDS011;30152;52.066;5.358;2022-12-16T12:54:43;30.27;;;16.58;;
44446;SDS011;30152;52.066;5.358;2022-12-16T12:57:38;32.30;;;15.55;;
44446;SDS011;30152;52.066;5.358;2022-12-16T13:00:24;31.70;;;15.65;;
44446;SDS011;30152;52.066;5.358;2022-12-16T13:06:13;32.80;;;15.82;;
44446;SDS011;30152;52.066;5.358;2022-12-16T13:08:58;29.27;;;16.25;;
44446;SDS011;30152;52.066;5.358;2022-12-16T13:20:43;34.25;;;17.48;;
44446;SDS011;30152;52.066;5.358;2022-12-16T13:26:13;30.88;;;17.33;;
44446;SDS011;30152;52.066;5.358;2022-12-16T13:29:22;33.38;;;18.10;;
44446;SDS011;30152;52.066;5.358;2022-12-16T13:38:01;35.10;;;18.08;;
44446;SDS011;30152;52.066;5.358;2022-12-16T13:44:46;33.85;;;17.83;;
44446;SDS011;30152;52.066;5.358;2022-12-16T13:46:45;37.38;;;18.88;;
44446;SDS011;30152;52.066;5.358;2022-12-16T13:52:37;38.67;;;19.42;;
44446;SDS011;30152;52.066;5.358;2022-12-16T13:55:37;38.03;;;19.40;;
44446;SDS011;30152;52.066;5.358;2022-12-16T13:58:28;36.35;;;18.90;;
44446;SDS011;30152;52.066;5.358;2022-12-16T14:01:15;36.15;;;20.13;;
44446;SDS011;30152;52.066;5.358;2022-12-16T14:04:07;34.88;;;18.65;;
44446;SDS011;30152;52.066;5.358;2022-12-16T14:06:53;37.45;;;19.27;;
44446;SDS011;30152;52.066;5.358;2022-12-16T14:09:42;35.22;;;17.73;;
44446;SDS011;30152;52.066;5.358;2022-12-16T14:12:43;34.05;;;18.45;;
44446;SDS011;30152;52.066;5.358;2022-12-16T14:19:03;37.67;;;19.70;;
44446;SDS011;30152;52.066;5.358;2022-12-16T14:25:37;36.72;;;19.17;;
44446;SDS011;30152;52.066;5.358;2022-12-16T14:28:31;34.28;;;18.88;;
44446;SDS011;30152;52.066;5.358;2022-12-16T14:31:25;38.65;;;19.80;;
44446;SDS011;30152;52.066;5.358;2022-12-16T14:34:16;39.35;;;19.75;;
44446;SDS011;30152;52.066;5.358;2022-12-16T14:37:11;36.38;;;20.00;;
44446;SDS011;30152;52.066;5.358;2022-12-16T14:40:00;35.67;;;19.90;;
44446;SDS011;30152;52.066;5.358;2022-12-16T14:42:46;40.38;;;20.65;;
44446;SDS011;30152;52.066;5.358;2022-12-16T14:45:35;40.17;;;22.08;;
44446;SDS011;30152;52.066;5.358;2022-12-16T14:51:14;43.63;;;21.90;;
44446;SDS011;30152;52.066;5.358;2022-12-16T14:54:24;37.53;;;20.88;;
44446;SDS011;30152;52.066;5.358;2022-12-16T14:57:32;37.78;;;20.80;;
44446;SDS011;30152;52.066;5.358;2022-12-16T15:00:17;42.13;;;21.70;;
44446;SDS011;30152;52.066;5.358;2022-12-16T15:06:24;44.95;;;21.65;;
44446;SDS011;30152;52.066;5.358;2022-12-16T15:09:19;40.88;;;21.95;;
44446;SDS011;30152;52.066;5.358;2022-12-16T15:12:07;42.72;;;22.25;;
44446;SDS011;30152;52.066;5.358;2022-12-16T15:14:53;43.80;;;22.83;;
44446;SDS011;30152;52.066;5.358;2022-12-16T15:17:49;47.33;;;23.40;;
44446;SDS011;30152;52.066;5.358;2022-12-16T15:20:36;46.88;;;22.92;;
44446;SDS011;30152;52.066;5.358;2022-12-16T15:23:32;43.63;;;22.77;;
44446;SDS011;30152;52.066;5.358;2022-12-16T15:26:17;44.42;;;22.70;;
44446;SDS011;30152;52.066;5.358;2022-12-16T15:29:03;45.38;;;21.50;;
44446;SDS011;30152;52.066;5.358;2022-12-16T15:31:48;44.42;;;22.50;;
44446;SDS011;30152;52.066;5.358;2022-12-16T15:34:48;41.83;;;20.58;;
44446;SDS011;30152;52.066;5.358;2022-12-16T15:37:39;38.97;;;19.40;;
44446;SDS011;30152;52.066;5.358;2022-12-16T15:40:28;40.75;;;21.42;;
44446;SDS011;30152;52.066;5.358;2022-12-16T15:46:16;46.45;;;23.77;;
44446;SDS011;30152;52.066;5.358;2022-12-16T15:49:01;46.80;;;23.92;;
44446;SDS011;30152;52.066;5.358;2022-12-16T15:51:47;48.35;;;23.00;;
44446;SDS011;30152;52.066;5.358;2022-12-16T15:54:32;47.00;;;24.02;;
44446;SDS011;30152;52.066;5.358;2022-12-16T15:57:33;41.20;;;21.10;;
44446;SDS011;30152;52.066;5.358;2022-12-16T16:03:20;43.97;;;22.00;;
44446;SDS011;30152;52.066;5.358;2022-12-16T16:06:17;39.42;;;21.98;;
44446;SDS011;30152;52.066;5.358;2022-12-16T16:12:11;40.23;;;21.10;;
44446;SDS011;30152;52.066;5.358;2022-12-16T16:14:59;40.15;;;21.83;;
44446;SDS011;30152;52.066;5.358;2022-12-16T16:17:43;41.35;;;20.40;;
44446;SDS011;30152;52.066;5.358;2022-12-16T16:20:28;42.17;;;21.10;;
44446;SDS011;30152;52.066;5.358;2022-12-16T16:23:14;38.28;;;20.67;;
44446;SDS011;30152;52.066;5.358;2022-12-16T16:25:58;43.67;;;20.27;;
44446;SDS011;30152;52.066;5.358;2022-12-16T16:28:42;42.33;;;20.73;;
44446;SDS011;30152;52.066;5.358;2022-12-16T16:31:26;45.38;;;22.35;;
44446;SDS011;30152;52.066;5.358;2022-12-16T16:34:10;38.60;;;20.55;;
44446;SDS011;30152;52.066;5.358;2022-12-16T16:36:56;40.95;;;21.13;;
44446;SDS011;30152;52.066;5.358;2022-12-16T16:39:41;42.85;;;22.38;;
44446;SDS011;30152;52.066;5.358;2022-12-16T16:42:26;43.65;;;21.90;;
44446;SDS011;30152;52.066;5.358;2022-12-16T16:45:11;48.22;;;22.20;;
44446;SDS011;30152;52.066;5.358;2022-12-16T16:48:08;49.88;;;21.25;;
44446;SDS011;30152;52.066;5.358;2022-12-16T16:50:55;50.35;;;22.67;;
44446;SDS011;30152;52.066;5.358;2022-12-16T16:53:41;49.28;;;24.13;;
44446;SDS011;30152;52.066;5.358;2022-12-16T16:56:26;49.25;;;23.13;;
44446;SDS011;30152;52.066;5.358;2022-12-16T16:59:13;44.00;;;23.50;;
44446;SDS011;30152;52.066;5.358;2022-12-16T17:01:57;44.42;;;23.23;;
44446;SDS011;30152;52.066;5.358;2022-12-16T17:04:42;50.08;;;24.58;;
44446;SDS011;30152;52.066;5.358;2022-12-16T17:10:10;54.45;;;26.00;;
44446;SDS011;30152;52.066;5.358;2022-12-16T17:12:54;50.33;;;25.42;;
44446;SDS011;30152;52.066;5.358;2022-12-16T17:15:39;50.85;;;26.50;;
44446;SDS011;30152;52.066;5.358;2022-12-16T17:18:23;56.50;;;27.50;;
44446;SDS011;30152;52.066;5.358;2022-12-16T17:21:08;58.03;;;27.80;;
44446;SDS011;30152;52.066;5.358;2022-12-16T17:23:52;59.65;;;29.60;;
44446;SDS011;30152;52.066;5.358;2022-12-16T17:26:43;57.22;;;28.40;;
44446;SDS011;30152;52.066;5.358;2022-12-16T17:29:27;59.50;;;29.42;;
44446;SDS011;30152;52.066;5.358;2022-12-16T17:32:12;59.17;;;29.58;;
44446;SDS011;30152;52.066;5.358;2022-12-16T17:34:57;57.78;;;30.25;;
44446;SDS011;30152;52.066;5.358;2022-12-16T17:37:42;55.13;;;28.23;;
44446;SDS011;30152;52.066;5.358;2022-12-16T17:40:26;64.03;;;30.77;;
44446;SDS011;30152;52.066;5.358;2022-12-16T17:43:10;58.72;;;29.35;;
44446;SDS011;30152;52.066;5.358;2022-12-16T17:45:55;62.88;;;31.48;;
44446;SDS011;30152;52.066;5.358;2022-12-16T17:48:51;62.50;;;30.65;;
44446;SDS011;30152;52.066;5.358;2022-12-16T17:51:40;63.40;;;30.60;;
44446;SDS011;30152;52.066;5.358;2022-12-16T17:54:24;65.13;;;31.00;;
44446;SDS011;30152;52.066;5.358;2022-12-16T17:57:09;60.63;;;30.55;;
44446;SDS011;30152;52.066;5.358;2022-12-16T17:59:53;67.43;;;35.05;;
44446;SDS011;30152;52.066;5.358;2022-12-16T18:02:38;66.28;;;35.10;;
44446;SDS011;30152;52.066;5.358;2022-12-16T18:05:23;67.60;;;32.97;;
44446;SDS011;30152;52.066;5.358;2022-12-16T18:08:07;60.40;;;30.83;;
44446;SDS011;30152;52.066;5.358;2022-12-16T18:16:20;59.15;;;26.25;;
44446;SDS011;30152;52.066;5.358;2022-12-16T18:19:04;51.55;;;27.27;;
44446;SDS011;30152;52.066;5.358;2022-12-16T18:21:49;68.20;;;32.22;;
44446;SDS011;30152;52.066;5.358;2022-12-16T18:24:33;63.50;;;30.13;;
44446;SDS011;30152;52.066;5.358;2022-12-16T18:27:18;62.10;;;30.13;;
44446;SDS011;30152;52.066;5.358;2022-12-16T18:30:02;62.22;;;30.88;;
44446;SDS011;30152;52.066;5.358;2022-12-16T18:32:47;67.28;;;32.53;;
44446;SDS011;30152;52.066;5.358;2022-12-16T18:35:31;76.93;;;36.55;;
44446;SDS011;30152;52.066;5.358;2022-12-16T18:38:16;64.65;;;31.27;;
44446;SDS011;30152;52.066;5.358;2022-12-16T18:41:04;73.78;;;33.40;;
44446;SDS011;30152;52.066;5.358;2022-12-16T18:43:49;66.25;;;30.52;;
44446;SDS011;30152;52.066;5.358;2022-12-16T18:49:17;59.42;;;29.60;;
44446;SDS011;30152;52.066;5.358;2022-12-16T18:52:02;62.28;;;29.42;;
44446;SDS011;30152;52.066;5.358;2022-12-16T18:54:46;64.28;;;31.02;;
44446;SDS011;30152;52.066;5.358;2022-12-16T18:57:31;65.43;;;29.90;;
44446;SDS011;30152;52.066;5.358;2022-12-16T19:00:16;73.25;;;32.05;;
44446;SDS011;30152;52.066;5.358;2022-12-16T19:03:00;69.40;;;30.45;;
44446;SDS011;30152;52.066;5.358;2022-12-16T19:05:51;70.85;;;31.67;;
44446;SDS011;30152;52.066;5.358;2022-12-16T19:08:36;73.45;;;32.97;;
44446;SDS011;30152;52.066;5.358;2022-12-16T19:11:21;71.97;;;32.38;;
44446;SDS011;30152;52.066;5.358;2022-12-16T19:14:05;72.03;;;32.00;;
44446;SDS011;30152;52.066;5.358;2022-12-16T19:16:50;73.75;;;33.40;;
44446;SDS011;30152;52.066;5.358;2022-12-16T19:19:34;72.85;;;33.53;;
44446;SDS011;30152;52.066;5.358;2022-12-16T19:22:19;76.95;;;33.33;;
44446;SDS011;30152;52.066;5.358;2022-12-16T19:25:03;72.20;;;31.75;;
44446;SDS011;30152;52.066;5.358;2022-12-16T19:27:47;83.45;;;34.55;;
44446;SDS011;30152;52.066;5.358;2022-12-16T19:33:16;113.20;;;45.03;;
44446;SDS011;30152;52.066;5.358;2022-12-16T19:36:00;85.60;;;36.97;;
44446;SDS011;30152;52.066;5.358;2022-12-16T19:38:45;76.25;;;38.10;;
44446;SDS011;30152;52.066;5.358;2022-12-16T19:41:29;87.60;;;40.88;;
44446;SDS011;30152;52.066;5.358;2022-12-16T19:44:14;81.28;;;37.03;;
44446;SDS011;30152;52.066;5.358;2022-12-16T19:46:58;81.25;;;37.03;;
44446;SDS011;30152;52.066;5.358;2022-12-16T19:49:43;81.13;;;36.22;;
44446;SDS011;30152;52.066;5.358;2022-12-16T19:52:27;86.03;;;37.00;;
44446;SDS011;30152;52.066;5.358;2022-12-16T19:55:12;81.47;;;35.65;;
44446;SDS011;30152;52.066;5.358;2022-12-16T19:57:56;82.72;;;35.45;;
44446;SDS011;30152;52.066;5.358;2022-12-16T20:00:41;79.07;;;35.08;;
44446;SDS011;30152;52.066;5.358;2022-12-16T20:03:25;83.53;;;36.33;;
44446;SDS011;30152;52.066;5.358;2022-12-16T20:06:09;84.53;;;37.05;;
44446;SDS011;30152;52.066;5.358;2022-12-16T20:08:55;75.65;;;33.85;;
44446;SDS011;30152;52.066;5.358;2022-12-16T20:11:40;82.72;;;34.85;;
44446;SDS011;30152;52.066;5.358;2022-12-16T20:14:25;89.15;;;36.30;;
44446;SDS011;30152;52.066;5.358;2022-12-16T20:17:10;89.55;;;35.33;;
44446;SDS011;30152;52.066;5.358;2022-12-16T20:19:54;83.60;;;35.75;;
44446;SDS011;30152;52.066;5.358;2022-12-16T20:22:38;84.78;;;34.50;;
44446;SDS011;30152;52.066;5.358;2022-12-16T20:25:22;79.53;;;34.25;;
44446;SDS011;30152;52.066;5.358;2022-12-16T20:28:07;85.13;;;33.40;;
44446;SDS011;30152;52.066;5.358;2022-12-16T20:30:51;89.90;;;35.60;;
44446;SDS011;30152;52.066;5.358;2022-12-16T20:33:36;195.88;;;64.85;;
44446;SDS011;30152;52.066;5.358;2022-12-16T20:36:20;136.57;;;51.22;;
44446;SDS011;30152;52.066;5.358;2022-12-16T20:39:05;97.93;;;37.00;;
44446;SDS011;30152;52.066;5.358;2022-12-16T20:41:49;88.63;;;35.50;;
44446;SDS011;30152;52.066;5.358;2022-12-16T20:44:35;139.93;;;46.42;;
44446;SDS011;30152;52.066;5.358;2022-12-16T20:50:23;89.85;;;35.67;;
44446;SDS011;30152;52.066;5.358;2022-12-16T20:53:07;92.72;;;35.08;;
44446;SDS011;30152;52.066;5.358;2022-12-16T20:55:52;89.93;;;36.42;;
44446;SDS011;30152;52.066;5.358;2022-12-16T20:58:36;92.18;;;37.47;;
44446;SDS011;30152;52.066;5.358;2022-12-16T21:01:21;94.72;;;36.83;;
44446;SDS011;30152;52.066;5.358;2022-12-16T21:06:52;96.13;;;35.63;;
44446;SDS011;30152;52.066;5.358;2022-12-16T21:09:36;96.28;;;34.63;;
44446;SDS011;30152;52.066;5.358;2022-12-16T21:12:21;85.45;;;33.88;;
44446;SDS011;30152;52.066;5.358;2022-12-16T21:15:05;86.15;;;34.92;;
44446;SDS011;30152;52.066;5.358;2022-12-16T21:17:50;95.38;;;35.85;;
44446;SDS011;30152;52.066;5.358;2022-12-16T21:20:35;90.45;;;36.42;;
44446;SDS011;30152;52.066;5.358;2022-12-16T21:23:19;94.93;;;35.83;;
44446;SDS011;30152;52.066;5.358;2022-12-16T21:26:04;91.03;;;36.28;;
44446;SDS011;30152;52.066;5.358;2022-12-16T21:31:32;88.75;;;30.73;;
44446;SDS011;30152;52.066;5.358;2022-12-16T21:34:16;92.05;;;32.80;;
44446;SDS011;30152;52.066;5.358;2022-12-16T21:37:01;94.45;;;36.47;;
44446;SDS011;30152;52.066;5.358;2022-12-16T21:39:46;96.53;;;35.45;;
44446;SDS011;30152;52.066;5.358;2022-12-16T21:42:30;87.68;;;33.67;;
44446;SDS011;30152;52.066;5.358;2022-12-16T21:45:15;94.70;;;34.38;;
44446;SDS011;30152;52.066;5.358;2022-12-16T21:47:59;95.65;;;35.40;;
44446;SDS011;30152;52.066;5.358;2022-12-16T21:50:49;88.68;;;35.10;;
44446;SDS011;30152;52.066;5.358;2022-12-16T21:53:35;96.53;;;33.83;;
44446;SDS011;30152;52.066;5.358;2022-12-16T21:56:19;78.18;;;31.38;;
44446;SDS011;30152;52.066;5.358;2022-12-16T21:59:17;83.25;;;30.73;;
44446;SDS011;30152;52.066;5.358;2022-12-16T22:02:02;75.88;;;30.48;;
44446;SDS011;30152;52.066;5.358;2022-12-16T22:04:47;95.32;;;34.22;;
44446;SDS011;30152;52.066;5.358;2022-12-16T22:07:31;91.00;;;33.53;;
44446;SDS011;30152;52.066;5.358;2022-12-16T22:10:16;85.43;;;32.95;;
44446;SDS011;30152;52.066;5.358;2022-12-16T22:13:02;85.07;;;33.65;;
44446;SDS011;30152;52.066;5.358;2022-12-16T22:15:56;93.15;;;33.78;;
44446;SDS011;30152;52.066;5.358;2022-12-16T22:18:40;90.10;;;32.75;;
44446;SDS011;30152;52.066;5.358;2022-12-16T22:21:25;84.78;;;32.38;;
44446;SDS011;30152;52.066;5.358;2022-12-16T22:24:09;85.60;;;31.73;;
